Have a Safe July 4th! 

Flight Track Log - Related Links

Times and Time Zones

All times are in EDT time to prevent confusion due to time zone crossing. See the N510SR flight status page for this flight to view local times or setup timezone preferences in your user account.

Time Position Orientation Groundspeed Altitude Reporting Facility
EDT Latitude Longitude Course Direction KTS MPH feet Rate Location/Type
Sun 11:24:08 AM 40.9000 -74.0333 224° Southwest 197 227 2,000  Level New York TRACON
Sun 11:25:02 AM 40.9167 -74.0667 303° West 231 266 2,800 2,053 Climbing New York TRACON
Sun 11:26:02 AM 40.9000 -74.1500 255° West 244 281 5,900 1,950 Climbing New York TRACON
Sun 11:27:02 AM 40.8333 -74.1833 201° Southwest 256 295 6,700 1,300 Climbing New York TRACON
Sun 11:28:02 AM 40.7667 -74.2167 201° Southwest 277 319 8,500 2,400 Climbing New York TRACON
Sun 11:29:00 AM 40.3148 -74.3295 224° Southwest  Level Estimated
Sun 11:29:02 AM 40.6833 -74.2333 189° South 282 325 11,500  Level New York TRACON
Sun 11:30:02 AM 40.5833 -74.2333 180° South 359 413 13,200 2,143 Climbing New York TRACON
Sun 11:31:36 AM 40.4314 -74.2392 182° South 411 473 17,000 1,481 Climbing New York Center
Sun 11:32:36 AM 40.3106 -74.2439 182° South 406 467 17,000  Level New York Center
Sun 11:33:36 AM 40.2000 -74.2492 182° South 400 460 17,000 1,385 Level New York Center
Sun 11:35:38 AM 40.0167 -74.2803 187° South 398 458 21,200 2,230 Climbing Washington Center
Sun 11:36:39 AM 39.8967 -74.3556 206° Southwest 398 458 23,800 1,770 Climbing Washington Center
Sun 11:37:40 AM 39.8081 -74.4464 218° Southwest 403 464 24,800 1,400 Climbing Washington Center
Sun 11:38:39 AM 39.7278 -74.5500 225° Southwest 408 470 26,600 1,613 Climbing Washington Center
Sun 11:39:39 AM 39.6475 -74.6592 226° Southwest 413 475 28,000 1,678 Climbing Washington Center
Sun 11:40:37 AM 39.5647 -74.7678 225° Southwest 418 481 29,900 2,339 Climbing Washington Center
Sun 11:41:37 AM 39.4800 -74.8631 221° Southwest 413 475 32,600 2,331 Climbing Washington Center
Sun 11:42:38 AM 39.3867 -74.9283 208° Southwest 403 464 34,600 1,686 Climbing Washington Center
Sun 11:43:38 AM 39.2847 -74.9883 204° Southwest 398 458 36,000 1,438 Climbing Washington Center
Sun 11:44:39 AM 39.1725 -75.0533 204° Southwest 398 458 37,500 1,438 Climbing Washington Center
Sun 11:45:39 AM 39.0750 -75.1183 207° Southwest 398 458 38,900 1,250 Climbing Washington Center
Sun 11:46:39 AM 38.9772 -75.1778 205° Southwest 398 458 40,000 1,169 Climbing Washington Center
Sun 11:47:37 AM 38.8753 -75.2397 205° Southwest 404 465 41,200 1,017 Climbing Washington Center
Sun 11:48:37 AM 38.7817 -75.3042 208° Southwest 399 459 42,000 800 Climbing Washington Center
Sun 11:49:37 AM 38.6817 -75.3631 205° Southwest 399 459 42,800 492 Climbing Washington Center
Sun 11:50:39 AM 38.5797 -75.4217 204° Southwest 404 465 43,000 98 Climbing Washington Center
Sun 11:51:39 AM 38.4775 -75.4831 205° Southwest 404 465 43,000  Level Washington Center
Sun 11:52:37 AM 38.3753 -75.5547 209° Southwest 404 465 43,000  Level Washington Center
Sun 11:53:37 AM 38.2836 -75.6050 203° Southwest 404 465 43,000  Level Washington Center
Sun 11:54:38 AM 38.1772 -75.6658 204° Southwest 410 472 43,000  Level Washington Center
Sun 11:55:39 AM 38.0750 -75.7367 209° Southwest 415 478 43,000  Level Washington Center
Sun 11:56:39 AM 37.9539 -75.8078 205° Southwest 429 494 43,000 203 Level Washington Center
Sun 11:57:37 AM 37.8558 -75.8628 204° Southwest 429 494 43,400  Climbing Washington Center
Sun 11:58:38 AM 37.7367 -75.9383 207° Southwest 429 494 43,000 -198 Descending Washington Center
Sun 11:59:38 AM 37.6303 -76.0036 206° Southwest 429 494 43,000  Level Washington Center
Sun 12:00:39 PM 37.5236 -76.0683 206° Southwest 429 494 43,000  Level Washington Center
Sun 12:01:37 PM 37.4147 -76.1356 206° Southwest 429 494 43,000 50 Level Washington Center
Sun 12:02:38 PM 37.2997 -76.1950 202° Southwest 435 501 43,100 49 Climbing Washington Center
Sun 12:03:39 PM 37.1889 -76.2592 205° Southwest 441 507 43,100  Level Washington Center
Sun 12:04:37 PM 37.1031 -76.3106 206° Southwest 441 507 43,100  Level Washington Center
Sun 12:05:38 PM 36.9817 -76.3797 204° Southwest 441 507 43,100  Level Washington Center
Sun 12:06:38 PM 36.8750 -76.4461 206° Southwest 441 507 43,100  Level Washington Center
Sun 12:07:39 PM 36.7639 -76.5097 205° Southwest 446 513 43,100 -50 Level Washington Center
Sun 12:08:37 PM 36.6464 -76.5861 208° Southwest 446 513 43,000 -50 Descending Washington Center
Sun 12:09:38 PM 36.5331 -76.6492 204° Southwest 446 513 43,000  Level Washington Center
Sun 12:10:38 PM 36.4242 -76.7122 205° Southwest 446 513 43,000  Level Washington Center
Sun 12:11:39 PM 36.3172 -76.7728 205° Southwest 446 513 43,000  Level Washington Center
Sun 12:12:37 PM 36.2058 -76.8353 204° Southwest 441 507 43,000  Level Washington Center
Sun 12:13:37 PM 36.0967 -76.8978 205° Southwest 441 507 43,000  Level Washington Center
Sun 12:14:39 PM 35.9856 -76.9603 204° Southwest 441 507 43,000  Level Washington Center
Sun 12:15:39 PM 35.8764 -77.0225 205° Southwest 441 507 43,000  Level Washington Center
Sun 12:16:37 PM 35.7650 -77.0844 204° Southwest 447 514 43,000 50 Level Washington Center
Sun 12:17:38 PM 35.6558 -77.1386 202° Southwest 439 505 43,100 50 Climbing Washington Center
Sun 12:18:38 PM 35.5364 -77.1822 197° South 434 499 43,100  Level Washington Center
Sun 12:19:37 PM 35.4189 -77.2258 197° South 446 513 43,100  Level Washington Center
Sun 12:20:38 PM 35.2972 -77.2692 196° South 451 519 43,100  Level Washington Center
Sun 12:21:39 PM 35.1775 -77.3150 197° South 451 519 43,100  Level Washington Center
Sun 12:22:39 PM 35.0581 -77.3581 196° South 452 520 43,100  Level Washington Center
Sun 12:23:37 PM 34.9364 -77.4061 198° South 452 520 43,100  Level Washington Center
Sun 12:24:38 PM 34.8397 -77.4419 197° South 452 520 43,100 -49 Level Washington Center
Sun 12:25:39 PM 34.7097 -77.4919 198° South 452 520 43,000 -50 Descending Washington Center
Sun 12:26:39 PM 34.5878 -77.5369 197° South 452 520 43,000 50 Level Washington Center
Sun 12:27:40 PM 34.4703 -77.5797 197° South 452 520 43,100  Climbing Washington Center
Sun 12:28:37 PM 34.3486 -77.6244 197° South 457 526 43,000 -51 Descending Washington Center
Sun 12:29:37 PM 34.2289 -77.6667 196° South 457 526 43,000 44 Level Washington Center
Sun 12:30:53 PM 34.0603 -77.7267 196° South 480 552 43,100 44 Climbing Jacksonville Center
Sun 12:31:53 PM 33.9408 -77.7661 195° South 453 521 43,100  Level Jacksonville Center
Sun 12:32:53 PM 33.8219 -77.8156 199° South 455 524 43,100  Level Jacksonville Center
Sun 12:33:53 PM 33.7006 -77.8575 196° South 449 517 43,100 -50 Level Jacksonville Center
Sun 12:34:53 PM 33.5894 -77.8964 196° South 455 524 43,000 -50 Descending Jacksonville Center
Sun 12:35:53 PM 33.4700 -77.9403 197° South 455 524 43,000  Level Jacksonville Center
Sun 12:36:53 PM 33.3528 -77.9817 196° South 449 517 43,000  Level Jacksonville Center
Sun 12:37:53 PM 33.2314 -78.0256 197° South 456 525 43,000  Level Jacksonville Center
Sun 12:38:53 PM 33.1119 -78.0694 197° South 456 525 43,000  Level Jacksonville Center
Sun 12:39:53 PM 32.9903 -78.1081 195° South 456 525 43,000  Level Jacksonville Center
Sun 12:40:53 PM 32.8689 -78.1517 197° South 456 525 43,000  Level Jacksonville Center
Sun 12:41:53 PM 32.7494 -78.1975 198° South 450 518 43,000  Level Jacksonville Center
Sun 12:42:53 PM 32.6300 -78.2381 196° South 450 518 43,000  Level Jacksonville Center
Sun 12:43:53 PM 32.5103 -78.2789 196° South 450 518 43,000  Level Jacksonville Center
Sun 12:44:53 PM 32.3908 -78.3192 196° South 450 518 43,000  Level Jacksonville Center
Sun 12:45:53 PM 32.2714 -78.3644 198° South 450 518 43,000  Level Jacksonville Center
Sun 12:46:53 PM 32.1475 -78.4000 194° South 450 518 43,000  Level Jacksonville Center
Sun 12:47:53 PM 32.0258 -78.4478 198° South 455 524 43,000  Level Jacksonville Center
Sun 12:48:53 PM 31.9039 -78.4831 194° South 455 524 43,000  Level Jacksonville Center
Sun 12:49:53 PM 31.7844 -78.5278 198° South 455 524 43,000  Level Jacksonville Center
Sun 12:50:53 PM 31.6583 -78.5656 194° South 455 524 43,000  Level Jacksonville Center
Sun 12:51:53 PM 31.5433 -78.6194 202° Southwest 448 516 43,000  Level Jacksonville Center
Sun 12:52:53 PM 31.4153 -78.6594 195° South 454 522 43,000  Level Jacksonville Center
Sun 12:53:53 PM 31.2936 -78.7039 197° South 463 533 43,000  Level Jacksonville Center
Sun 12:54:53 PM 31.1633 -78.7411 194° South 470 541 43,000  Level Jacksonville Center
Sun 12:55:53 PM 31.0394 -78.7806 195° South 470 541 43,000  Level Jacksonville Center
Sun 12:56:53 PM 30.9156 -78.8297 199° South 470 541 43,000  Level Jacksonville Center
Sun 12:59:16 PM 30.6239 -78.9281 196° South 469 540 43,000  Level Miami Center
Sun 01:00:16 PM 30.4939 -78.9711 196° South 468 539 43,000  Level Miami Center
Sun 01:01:16 PM 30.3725 -79.0119 196° South 473 544 43,000  Level Miami Center
Sun 01:02:16 PM 30.2406 -79.0453 192° South 478 550 43,000  Level Miami Center
Sun 01:03:16 PM 30.1108 -79.0786 193° South 478 550 43,000 50 Level Miami Center
Sun 01:04:16 PM 29.9853 -79.1169 195° South 472 543 43,100 -100 Climbing Miami Center
Sun 01:05:16 PM 29.8556 -79.1453 191° South 472 543 42,800 -750 Descending Miami Center
Sun 01:06:16 PM 29.7278 -79.1831 194° South 472 543 41,600 -1,200 Descending Miami Center
Sun 01:07:16 PM 29.6000 -79.2089 190° South 472 543 40,400 -750 Descending Miami Center
Sun 01:08:16 PM 29.4975 -79.2331 192° South 470 541 40,100 -150 Descending Miami Center
Sun 01:09:16 PM 29.3528 -79.2728 193° South 469 540 40,100  Level Miami Center
Sun 01:10:16 PM 29.2250 -79.3033 192° South 469 540 40,100  Level Miami Center
Sun 01:11:16 PM 29.0994 -79.3383 194° South 469 540 40,100 -50 Level Miami Center
Sun 01:12:16 PM 28.9758 -79.3689 192° South 469 540 40,000 -50 Descending Miami Center
Sun 01:13:16 PM 28.8542 -79.3992 192° South 457 526 40,000  Level Miami Center
Sun 01:14:16 PM 28.7200 -79.4317 192° South 450 518 40,000  Level Miami Center
Sun 01:15:16 PM 28.5964 -79.4619 192° South 450 518 40,000  Level Miami Center
Sun 01:16:16 PM 28.4747 -79.4922 192° South 450 518 40,000 -100 Level Miami Center
Sun 01:17:16 PM 28.3531 -79.5225 192° South 450 518 39,800 -100 Descending Miami Center
Sun 01:18:16 PM 28.2294 -79.5525 192° South 450 518 39,800 -50 Level Miami Center
Sun 01:19:16 PM 28.1058 -79.5800 191° South 450 518 39,700 -1,200 Descending Miami Center
Sun 01:20:16 PM 27.9819 -79.6125 193° South 450 518 37,400 -2,350 Descending Miami Center
Sun 01:21:16 PM 27.8625 -79.6400 192° South 455 524 35,000 -2,400 Descending Miami Center
Sun 01:22:16 PM 27.7514 -79.6678 192° South 449 517 32,600 -2,400 Descending Miami Center
Sun 01:23:16 PM 27.6256 -79.6975 192° South 461 531 30,200 -2,600 Descending Miami Center
Sun 01:24:16 PM 27.4850 -79.7317 192° South 466 536 27,400 -2,600 Descending Miami Center
Sun 01:25:16 PM 27.3528 -79.7539 188° South 473 544 25,000 -2,200 Descending Miami Center
Sun 01:26:16 PM 27.2214 -79.7461 177° South 481 554 23,000 -2,050 Descending Miami Center
Sun 01:27:16 PM 27.1175 -79.7178 166° South 443 510 20,900 -2,050 Descending Miami Center
Sun 01:28:16 PM 27.0117 -79.6850 165° South 415 478 18,900 -2,100 Descending Miami Center
Sun 01:29:16 PM 26.9017 -79.6589 168° South 381 438 16,700 -1,950 Descending Miami Center
Sun 01:30:16 PM 26.8033 -79.6636 182° South 359 413 15,000 -1,778 Descending Miami Center
Sun 01:30:37 PM 26.7656 -79.6767 197° South 339 390 14,300 -1,700 Descending Miami Center
Sun 01:31:16 PM 26.7150 -79.7011 203° Southwest 347 399 13,300 -1,592 Descending Miami Center
Sun 01:31:26 PM 26.7022 -79.7100 212° Southwest 322 371 13,000 -1,300 Descending Miami Center
Sun 01:32:16 PM 26.6433 -79.7342 200° South 323 372 12,000 -1,412 Descending Miami Center
Sun 01:32:34 PM 26.6136 -79.7519 208° Southwest 297 342 11,400 -1,700 Descending Miami Center
Sun 01:33:16 PM 26.5608 -79.7739 200° South 308 354 10,300 -1,527 Descending Miami Center
Sun 01:33:29 PM 26.5439 -79.7850 210° Southwest 291 335 10,000 -1,100 Descending Miami Center
Sun 01:34:16 PM 26.4956 -79.8047 200° South 297 342 9,200 -1,377 Descending Miami Center
Sun 01:34:30 PM 26.4703 -79.8203 209° Southwest 282 325 8,600 -1,100 Descending Miami Center
Sun 01:35:16 PM 26.4156 -79.8422 200° South 292 336 8,100 -655 Descending Miami Center
Sun 01:35:25 PM 26.4050 -79.8489 209° Southwest 277 319 8,000 -100 Descending Miami Center
Sun 01:36:16 PM 26.3581 -79.8847 214° Southwest 286 329 8,000  Level Miami Center
Sun 01:36:26 PM 26.3411 -79.9006 220° Southwest 281 323 8,000 -900 Level Miami Center
Sun 01:37:16 PM 26.2842 -79.9269 203° Southwest 281 323 7,100 -1,180 Descending Miami Center
Sun 01:37:27 PM 26.2694 -79.9289 187° South 274 315 6,800 -1,300 Descending Miami Center
Sun 01:38:16 PM 26.2133 -79.9206 172° South 257 296 5,800 -1,279 Descending Miami Center
Sun 01:38:28 PM 26.1883 -79.9200 179° South 275 316 5,500 -1,200 Descending Miami Center
Sun 01:39:16 PM 26.1361 -79.9117 172° South 263 303 4,600 -1,180 Descending Miami Center
Sun 01:39:29 PM 26.1153 -79.9156 190° South 261 300 4,300 -600 Descending Miami Center
Sun 01:40:16 PM 26.0675 -79.8983 162° South 263 303 4,000 -295 Descending Miami Center
Sun 01:40:30 PM 26.0489 -79.8956 172° South 249 287 4,000 -1,098 Level Miami Center
Sun 01:41:38 PM 25.9856 -79.9286 205° Southwest 251 289 2,500 -1,026 Descending Miami Center
Sun 01:42:27 PM 25.9675 -79.9836 250° West 240 276 2,000 -310 Descending Miami Center
Sun 01:43:34 PM 25.9406 -80.0683 251° West 237 273 1,900 -179 Descending Miami Center
Sun 01:44:41 PM 25.9206 -80.1303 250° West 197 227 1,600 -141 Descending Miami Center
Sun 01:45:42 PM 25.9150 -80.1878 264° West 167 192 1,600 -443 Level Miami Center
Sun 01:46:43 PM 25.9117 -80.2383 266° West 157 181 700 -885 Descending Miami Center
Sun 01:48:00 PM 25.9000 -80.2667 245° Southwest  Level FlightAware Approximate
Sun 01:55:00 PM 25.9074 -80.2782 245° Southwest  Level Estimated

Login

Don't have an account? Register now (free) for customized features, flight alerts, and more!